createdAt,value
2016-09-09T00:00:46.465Z,75.59
2016-09-09T00:01:46.469Z,75.59
2016-09-09T00:02:46.469Z,75.49
2016-09-09T00:03:46.470Z,75.69
2016-09-09T00:04:46.475Z,75.79
2016-09-09T00:05:46.474Z,75.88
2016-09-09T00:06:46.789Z,76.17
2016-09-09T00:07:46.491Z,76.07
2016-09-09T00:08:46.491Z,75.98
2016-09-09T00:09:46.510Z,76.65
2016-09-09T00:10:46.494Z,76.56
2016-09-09T00:11:46.495Z,76.46
2016-09-09T00:12:46.495Z,76.26
2016-09-09T00:13:46.493Z,76.46
2016-09-09T00:14:46.498Z,76.84
2016-09-09T00:15:46.499Z,76.84
2016-09-09T00:16:46.508Z,76.94
2016-09-09T00:17:46.514Z,76.75
2016-09-09T00:18:46.507Z,77
2016-09-09T00:19:46.517Z,77.38
2016-09-09T00:20:46.517Z,77.19
2016-09-09T00:21:46.510Z,77.29
2016-09-09T00:22:46.515Z,77.29
2016-09-09T00:23:46.519Z,77.96
2016-09-09T00:24:46.521Z,77.67
2016-09-09T00:25:46.529Z,77.76
2016-09-09T00:26:46.530Z,77.48
2016-09-09T00:27:46.523Z,77.76
2016-09-09T00:28:46.527Z,78.06
2016-09-09T00:29:46.529Z,78.15
2016-09-09T00:30:46.533Z,77.96
2016-09-09T00:31:46.545Z,78.06
2016-09-09T00:32:46.535Z,78.25
2016-09-09T00:33:46.537Z,78.15
2016-09-09T00:34:46.541Z,78.44
2016-09-09T00:35:46.541Z,77.86
2016-09-09T00:36:46.546Z,78.15
2016-09-09T00:37:46.546Z,78.15
2016-09-09T00:38:46.547Z,78.06
2016-09-09T00:39:46.551Z,78.63
2016-09-09T00:40:46.562Z,78.44
2016-09-09T00:41:46.799Z,78.34
2016-09-09T00:42:46.556Z,78.25
2016-09-09T00:43:46.563Z,78.34
2016-09-09T00:44:46.559Z,78.73
2016-09-09T00:45:46.562Z,78.44
2016-09-09T00:46:46.569Z,78.34
2016-09-09T00:47:46.573Z,78.63
2016-09-09T00:48:46.570Z,78.63
2016-09-09T00:49:46.578Z,78.83
2016-09-09T00:50:46.572Z,78.83
2016-09-09T00:51:46.573Z,78.83
2016-09-09T00:52:46.578Z,78.63
2016-09-09T00:53:46.577Z,79.02
2016-09-09T00:54:46.586Z,79.11
2016-09-09T00:55:46.581Z,79.17
2016-09-09T00:56:46.584Z,79.6
2016-09-09T00:57:46.592Z,79.84
2016-09-09T00:58:46.598Z,79.94
2016-09-09T00:59:46.589Z,79.46
2016-09-09T01:00:46.593Z,79.84
2016-09-09T01:01:46.594Z,79.5
2016-09-09T01:02:46.597Z,79.65
2016-09-09T01:03:46.599Z,79.65
2016-09-09T01:04:46.599Z,79.6
2016-09-09T01:05:46.678Z,79.65
2016-09-09T01:06:46.615Z,79.65
2016-09-09T01:07:46.619Z,79.36
2016-09-09T01:08:46.618Z,79.65
2016-09-09T01:09:46.621Z,79.55
2016-09-09T01:10:46.619Z,79.46
2016-09-09T01:11:46.617Z,79.94
2016-09-09T01:12:46.621Z,79.94
2016-09-09T01:13:46.620Z,80.04
2016-09-09T01:14:46.634Z,79.94
2016-09-09T01:15:46.625Z,79.94
2016-09-09T01:16:46.623Z,79.55
2016-09-09T01:17:46.625Z,80.04
2016-09-09T01:18:46.625Z,79.75
2016-09-09T01:19:46.628Z,80.13
2016-09-09T01:20:46.630Z,80.22
2016-09-09T01:21:46.641Z,79.94
2016-09-09T01:22:46.945Z,80.13
2016-09-09T01:23:46.635Z,79.94
2016-09-09T01:24:46.638Z,79.75
2016-09-09T01:25:46.641Z,80.04
2016-09-09T01:26:46.641Z,79.75
2016-09-09T01:27:46.646Z,79.65
2016-09-09T01:28:46.904Z,80.04
2016-09-09T01:29:46.646Z,80.04
2016-09-09T01:30:46.653Z,79.65
2016-09-09T01:31:46.650Z,79.75
2016-09-09T01:32:46.651Z,79.46
2016-09-09T01:33:46.666Z,79.94
2016-09-09T01:34:46.655Z,79.9
2016-09-09T01:35:46.656Z,80.04
2016-09-09T01:36:46.973Z,80.22
2016-09-09T01:37:46.976Z,80.04
2016-09-09T01:38:46.669Z,80.09
2016-09-09T01:39:46.979Z,80.04
2016-09-09T01:40:46.672Z,80.04
2016-09-09T01:41:46.671Z,80.51
2016-09-09T01:42:46.680Z,80.61
2016-09-09T01:43:46.672Z,80.51
2016-09-09T01:44:46.671Z,80.51
2016-09-09T01:45:46.675Z,80.32
2016-09-09T01:46:46.693Z,80.42
2016-09-09T01:47:46.677Z,81.05
2016-09-09T01:48:46.676Z,80.71
2016-09-09T01:49:46.681Z,80.66
2016-09-09T01:50:46.681Z,81.05
2016-09-09T01:51:46.683Z,80.96
2016-09-09T01:52:46.697Z,81.34
2016-09-09T01:53:46.701Z,81.15
2016-09-09T01:54:46.698Z,81.24
2016-09-09T01:55:46.701Z,81.92
2016-09-09T01:56:46.700Z,81.92
2016-09-09T01:57:46.698Z,82.01
2016-09-09T01:58:46.701Z,82.01
2016-09-09T01:59:46.701Z,81.92
2016-09-09T02:00:46.713Z,81.92
2016-09-09T02:01:46.701Z,81.82
2016-09-09T02:02:47.018Z,82.2
2016-09-09T02:03:46.710Z,82.3
2016-09-09T02:04:46.705Z,82.2
2016-09-09T02:05:46.708Z,82.3
2016-09-09T02:06:46.706Z,82.1
2016-09-09T02:07:46.707Z,81.78
2016-09-09T02:08:46.712Z,82.3
2016-09-09T02:09:46.712Z,82.1
2016-09-09T02:10:46.711Z,82.2
2016-09-09T02:11:46.714Z,82.45
2016-09-09T02:12:46.717Z,82.01
2016-09-09T02:13:47.030Z,82.1
2016-09-09T02:14:46.719Z,82.49
2016-09-09T02:15:46.720Z,82.35
2016-09-09T02:16:46.720Z,82.54
2016-09-09T02:17:46.724Z,82.35
2016-09-09T02:18:46.723Z,82.78
2016-09-09T02:19:46.726Z,82.78
2016-09-09T02:20:46.725Z,82.74
2016-09-09T02:21:46.728Z,82.64
2016-09-09T02:22:46.730Z,82.93
2016-09-09T02:23:46.732Z,82.74
2016-09-09T02:24:46.731Z,82.74
2016-09-09T02:25:46.741Z,82.26
2016-09-09T02:26:46.735Z,82.64
2016-09-09T02:27:46.749Z,82.64
2016-09-09T02:28:46.745Z,82.26
2016-09-09T02:29:46.740Z,82.97
2016-09-09T02:30:46.741Z,82.84
2016-09-09T02:31:46.746Z,82.74
2016-09-09T02:32:46.744Z,82.74
2016-09-09T02:33:47.061Z,82.93
2016-09-09T02:34:46.757Z,82.93
2016-09-09T02:35:46.765Z,82.93
2016-09-09T02:36:46.758Z,82.93
2016-09-09T02:37:46.757Z,82.74
2016-09-09T02:38:46.760Z,83.41
2016-09-09T02:39:46.759Z,83.41
2016-09-09T02:40:46.757Z,83.22
2016-09-09T02:41:46.762Z,83.51
2016-09-09T02:42:46.760Z,83.22
2016-09-09T02:43:46.764Z,83.41
2016-09-09T02:44:46.787Z,83.51
2016-09-09T02:45:46.782Z,83.51
2016-09-09T02:46:46.776Z,83.41
2016-09-09T02:47:46.779Z,83.8
2016-09-09T02:48:46.774Z,83.8
2016-09-09T02:49:46.787Z,83.7
2016-09-09T02:50:46.774Z,83.41
2016-09-09T02:51:46.781Z,83.8
2016-09-09T02:52:46.778Z,83.98
2016-09-09T02:53:46.780Z,83.98
2016-09-09T02:54:46.779Z,83.8
2016-09-09T02:55:46.784Z,83.8
2016-09-09T02:56:46.784Z,84.04
2016-09-09T02:57:46.787Z,84.18
2016-09-09T02:58:46.786Z,84.04
2016-09-09T02:59:46.805Z,84.18
2016-09-09T03:00:46.789Z,84.37
2016-09-09T03:01:46.791Z,84.42
2016-09-09T03:02:46.792Z,84.23
2016-09-09T03:03:46.795Z,84.33
2016-09-09T03:04:46.794Z,84.04
2016-09-09T03:05:46.800Z,84.91
2016-09-09T03:06:46.798Z,84.81
2016-09-09T03:07:46.818Z,84.14
2016-09-09T03:08:46.801Z,84.81
2016-09-09T03:09:46.804Z,84.81
2016-09-09T03:10:46.811Z,84.81
2016-09-09T03:11:46.806Z,85
2016-09-09T03:12:46.805Z,84.61
2016-09-09T03:13:46.811Z,84.61
2016-09-09T03:14:46.810Z,84.23
2016-09-09T03:15:46.811Z,84.71
2016-09-09T03:16:46.813Z,85
2016-09-09T03:17:46.820Z,84.81
2016-09-09T03:18:46.817Z,85.28
2016-09-09T03:19:46.825Z,85.28
2016-09-09T03:20:46.821Z,84.91
2016-09-09T03:21:46.832Z,85.1
2016-09-09T03:22:46.823Z,85.38
2016-09-09T03:23:46.834Z,85.67
2016-09-09T03:24:46.833Z,85.48
2016-09-09T03:25:46.825Z,85.19
2016-09-09T03:26:46.828Z,85.19
2016-09-09T03:27:46.834Z,85.48
2016-09-09T03:28:46.843Z,85.28
2016-09-09T03:29:46.836Z,85.48
2016-09-09T03:30:46.833Z,85.48
2016-09-09T03:31:46.842Z,85.38
2016-09-09T03:32:46.838Z,85.19
2016-09-09T03:33:46.837Z,85.28
2016-09-09T03:34:46.838Z,85.48
2016-09-09T03:35:46.843Z,85.48
2016-09-09T03:36:46.848Z,85.38
2016-09-09T03:37:46.844Z,85.67
2016-09-09T03:38:46.844Z,85.28
2016-09-09T03:39:46.847Z,85.28
2016-09-09T03:40:46.852Z,85.38
2016-09-09T03:41:46.849Z,85.38
2016-09-09T03:42:46.858Z,85.38
2016-09-09T03:43:46.864Z,86.05
2016-09-09T03:44:46.853Z,86.05
2016-09-09T03:45:46.852Z,86.01
2016-09-09T03:46:46.857Z,85.92
2016-09-09T03:47:46.855Z,86.01
2016-09-09T03:48:46.858Z,86.01
2016-09-09T03:49:46.859Z,86.01
2016-09-09T03:50:46.875Z,86.01
2016-09-09T03:51:46.862Z,86.49
2016-09-09T03:52:46.864Z,86.49
2016-09-09T03:53:46.870Z,86.4
2016-09-09T03:54:46.869Z,86.58
2016-09-09T03:55:46.872Z,86.3
2016-09-09T03:56:46.867Z,86.58
2016-09-09T03:57:46.870Z,86.78
2016-09-09T03:58:47.183Z,86.58
2016-09-09T03:59:46.881Z,86.78
2016-09-09T04:00:46.875Z,87.07
2016-09-09T04:01:46.876Z,87.35
2016-09-09T04:02:46.881Z,87.35
2016-09-09T04:03:47.197Z,87.07
2016-09-09T04:04:46.879Z,87.16
2016-09-09T04:05:46.882Z,87.26
2016-09-09T04:06:46.883Z,87.07
2016-09-09T04:07:46.886Z,87.55
2016-09-09T04:08:46.885Z,87.35
2016-09-09T04:09:46.887Z,87.16
2016-09-09T04:10:46.886Z,87.07
2016-09-09T04:11:46.890Z,87.55
2016-09-09T04:12:46.892Z,87.84
2016-09-09T04:13:46.890Z,87.93
2016-09-09T04:14:46.893Z,87.55
2016-09-09T04:15:46.894Z,87.84
2016-09-09T04:16:46.900Z,87.74
2016-09-09T04:17:46.895Z,87.55
2016-09-09T04:18:46.903Z,87.55
2016-09-09T04:19:46.901Z,87.55
2016-09-09T04:20:46.901Z,87.45
2016-09-09T04:21:46.904Z,87.55
2016-09-09T04:22:46.911Z,87.55
2016-09-09T04:23:46.907Z,87.64
2016-09-09T04:24:46.906Z,87.64
2016-09-09T04:25:47.245Z,87.84
2016-09-09T04:26:46.909Z,87.45
2016-09-09T04:27:46.910Z,87.55
2016-09-09T04:28:46.910Z,87.74
2016-09-09T04:29:46.911Z,87.45
2016-09-09T04:30:46.917Z,87.45
2016-09-09T04:31:46.914Z,88.02
2016-09-09T04:32:46.914Z,87.64
2016-09-09T04:33:46.916Z,87.55
2016-09-09T04:34:46.917Z,87.45
2016-09-09T04:35:46.919Z,87.64
2016-09-09T04:36:46.918Z,87.93
2016-09-09T04:37:46.920Z,88.12
2016-09-09T04:38:46.924Z,88.02
2016-09-09T04:39:46.922Z,88.12
2016-09-09T04:40:46.938Z,87.74
2016-09-09T04:41:46.942Z,88.22
2016-09-09T04:42:46.941Z,88.02
2016-09-09T04:43:46.943Z,88.12
2016-09-09T04:44:46.945Z,87.26
2016-09-09T04:45:46.945Z,87.74
2016-09-09T04:46:46.944Z,87.74
2016-09-09T04:47:46.944Z,88.12
2016-09-09T04:48:46.944Z,88.22
2016-09-09T04:49:46.945Z,87.93
2016-09-09T04:50:46.945Z,88.12
2016-09-09T04:51:46.949Z,88.12
2016-09-09T04:52:46.962Z,87.93
2016-09-09T04:53:46.956Z,87.74
2016-09-09T04:54:46.949Z,87.64
2016-09-09T04:55:46.949Z,88.31
2016-09-09T04:56:46.948Z,87.93
2016-09-09T04:57:46.949Z,87.84
2016-09-09T04:58:46.948Z,87.93
2016-09-09T04:59:46.952Z,88.02
2016-09-09T05:00:46.951Z,87.93
2016-09-09T05:01:46.960Z,87.26
2016-09-09T05:02:46.953Z,87.74
2016-09-09T05:03:46.971Z,87.84
2016-09-09T05:04:46.954Z,87.35
2016-09-09T05:05:46.960Z,87.93
2016-09-09T05:06:46.956Z,87.55
2016-09-09T05:07:46.958Z,87.55
2016-09-09T05:08:46.957Z,87.45
2016-09-09T05:09:46.958Z,87.74
2016-09-09T05:10:46.964Z,87.74
2016-09-09T05:11:46.962Z,86.88
2016-09-09T05:12:46.960Z,87.07
2016-09-09T05:13:46.967Z,86.88
2016-09-09T05:14:46.965Z,87.45
2016-09-09T05:15:46.966Z,87.35
2016-09-09T05:16:46.965Z,86.78
2016-09-09T05:17:46.966Z,86.97
2016-09-09T05:18:46.969Z,87.07
2016-09-09T05:19:46.974Z,86.58
2016-09-09T05:20:46.975Z,86.4
2016-09-09T05:21:47.218Z,86.54
2016-09-09T05:22:46.984Z,87.11
2016-09-09T05:23:46.981Z,85.19
2016-09-09T05:24:46.978Z,83.41
2016-09-09T05:25:46.977Z,82.07
2016-09-09T05:26:46.982Z,81.34
2016-09-09T05:27:46.982Z,80.47
2016-09-09T05:28:46.983Z,79.07
2016-09-09T05:29:46.987Z,78.59
2016-09-09T05:30:46.986Z,78.25
2016-09-09T05:31:46.990Z,77.92
2016-09-09T05:32:46.992Z,77.53
2016-09-09T05:33:46.994Z,77.19
2016-09-09T05:34:46.995Z,77.19
2016-09-09T05:35:46.998Z,77
2016-09-09T05:36:47.007Z,76.9
2016-09-09T05:37:47.003Z,77
2016-09-09T05:38:47.005Z,77.29
2016-09-09T05:39:47.007Z,78.63
2016-09-09T05:40:47.012Z,78.11
2016-09-09T05:41:47.019Z,79.17
2016-09-09T05:42:47.032Z,79.94
2016-09-09T05:43:47.032Z,79.46
2016-09-09T05:44:47.029Z,79.65
2016-09-09T05:45:47.033Z,79.99
2016-09-09T05:46:47.032Z,79.71
2016-09-09T05:47:47.036Z,79.9
2016-09-09T05:48:47.042Z,79.8
2016-09-09T05:49:47.032Z,79.9
2016-09-09T05:50:47.036Z,80.28
2016-09-09T05:51:47.047Z,80.86
2016-09-09T05:52:47.036Z,80.76
2016-09-09T05:53:47.042Z,80.66
2016-09-09T05:54:47.041Z,80.57
2016-09-09T05:55:47.041Z,80.96
2016-09-09T05:56:47.042Z,80.57
2016-09-09T05:57:47.046Z,80.76
2016-09-09T05:58:47.050Z,80.86
2016-09-09T05:59:47.048Z,80.86
2016-09-09T06:00:47.052Z,79.9
2016-09-09T06:01:47.054Z,79.99
2016-09-09T06:02:47.056Z,80.28
2016-09-09T06:03:47.057Z,80.09
2016-09-09T06:04:47.064Z,80.28
2016-09-09T06:05:47.063Z,79.71
2016-09-09T06:06:47.066Z,79.52
2016-09-09T06:07:47.068Z,79.71
2016-09-09T06:08:47.069Z,79.71
2016-09-09T06:09:47.384Z,80.09
2016-09-09T06:10:47.084Z,79.52
2016-09-09T06:11:47.080Z,79.61
2016-09-09T06:12:47.078Z,79.61
2016-09-09T06:13:47.085Z,79.65
2016-09-09T06:14:47.088Z,79.36
2016-09-09T06:15:47.083Z,79.46
2016-09-09T06:16:47.085Z,78.98
2016-09-09T06:17:47.090Z,78.88
2016-09-09T06:18:47.086Z,78.69
2016-09-09T06:19:47.097Z,78.69
2016-09-09T06:20:47.092Z,78.11
2016-09-09T06:21:47.095Z,78.5
2016-09-09T06:22:47.097Z,78.5
2016-09-09T06:23:47.106Z,77.73
2016-09-09T06:24:47.116Z,77.92
2016-09-09T06:25:47.104Z,78.11
2016-09-09T06:26:47.109Z,77.63
2016-09-09T06:27:47.108Z,76.77
2016-09-09T06:28:47.110Z,76.71
2016-09-09T06:29:47.110Z,76.04
2016-09-09T06:30:47.114Z,74.92
2016-09-09T06:31:47.114Z,73.96
2016-09-09T06:32:47.122Z,72.17
2016-09-09T06:33:47.118Z,71.91
2016-09-09T06:34:47.124Z,71.62
2016-09-09T06:35:47.126Z,71.72
2016-09-09T06:36:47.129Z,71.81
2016-09-09T06:37:47.130Z,72.55
2016-09-09T06:38:47.134Z,72.36
2016-09-09T06:39:47.136Z,72.84
2016-09-09T06:40:47.141Z,73.13
2016-09-09T06:41:47.143Z,71.59
2016-09-09T06:42:47.146Z,69.45
2016-09-09T06:43:47.149Z,67.36
2016-09-09T06:44:47.152Z,66.14
2016-09-09T06:45:47.160Z,63.95
2016-09-09T06:46:47.164Z,62.05
2016-09-09T06:47:47.161Z,60.86
2016-09-09T06:48:47.164Z,59.7
2016-09-09T06:49:47.185Z,58.57
2016-09-09T06:50:47.184Z,57.05
2016-09-09T06:51:47.190Z,55.92
2016-09-09T06:52:47.185Z,55.63
2016-09-09T06:53:47.207Z,54.88
2016-09-09T06:54:47.190Z,54.21
2016-09-09T06:55:47.204Z,54.03
2016-09-09T06:56:47.200Z,53.75
2016-09-09T06:57:47.207Z,53
2016-09-09T06:58:47.210Z,52.61
2016-09-09T06:59:47.216Z,52.8
2016-09-09T07:00:47.230Z,53.09
2016-09-09T07:01:47.230Z,53.09
2016-09-09T07:02:47.552Z,53.45
2016-09-09T07:03:47.239Z,54.03
2016-09-09T07:04:47.250Z,53.94
2016-09-09T07:05:47.254Z,54.11
2016-09-09T07:06:47.252Z,54.79
2016-09-09T07:07:47.261Z,54.11
2016-09-09T07:08:47.265Z,54.11
2016-09-09T07:09:47.584Z,53.65
2016-09-09T07:10:47.275Z,54.49
2016-09-09T07:11:47.289Z,55.27
2016-09-09T07:12:47.288Z,56.21
2016-09-09T07:13:47.295Z,56.3
2016-09-09T07:14:47.309Z,56.88
2016-09-09T07:15:47.302Z,57.44
2016-09-09T07:16:47.317Z,56.28
2016-09-09T07:17:47.379Z,55.24
2016-09-09T07:18:47.388Z,53.33
2016-09-09T07:19:47.325Z,52.32
2016-09-09T07:20:47.333Z,51.74
2016-09-09T07:21:47.336Z,50.21
2016-09-09T07:22:47.341Z,49.66
2016-09-09T07:23:47.346Z,48.52
2016-09-09T07:24:47.349Z,47.86
2016-09-09T07:25:47.357Z,46.52
2016-09-09T07:26:47.362Z,45.67
2016-09-09T07:27:47.375Z,44.06
2016-09-09T07:28:47.375Z,43.3
2016-09-09T07:29:47.380Z,43.3
2016-09-09T07:30:47.387Z,42.72
2016-09-09T07:31:47.404Z,42.25
2016-09-09T07:32:47.401Z,42.06
2016-09-09T07:33:47.408Z,41.79
2016-09-09T07:34:47.413Z,42.08
2016-09-09T07:35:47.421Z,41.69
2016-09-09T07:36:47.437Z,41.99
2016-09-09T07:37:47.451Z,42.16
2016-09-09T07:38:47.449Z,42.18
2016-09-09T07:39:47.452Z,43.04
2016-09-09T07:40:47.454Z,43.3
2016-09-09T07:41:47.463Z,43.4
2016-09-09T07:42:47.469Z,42.84
2016-09-09T07:43:47.480Z,43.04
2016-09-09T07:44:47.484Z,43.52
2016-09-09T07:45:47.499Z,44.28
2016-09-09T07:46:47.498Z,44.48
2016-09-09T07:47:47.506Z,44.45
2016-09-09T07:48:47.524Z,43.99
2016-09-09T07:49:47.523Z,45.15
2016-09-09T07:50:47.528Z,45.04
2016-09-09T07:51:47.543Z,45.23
2016-09-09T07:52:47.542Z,43.99
2016-09-09T07:53:47.551Z,44.3
2016-09-09T07:54:47.590Z,44.01
2016-09-09T07:55:47.644Z,45.35
2016-09-09T07:56:47.649Z,47.54
2016-09-09T07:57:47.586Z,48.95
2016-09-09T07:58:47.589Z,50.96
2016-09-09T07:59:47.594Z,52.5
2016-09-09T08:00:47.592Z,54.67
2016-09-09T08:01:47.598Z,56.07
2016-09-09T08:02:47.606Z,57.3
2016-09-09T08:03:47.615Z,58.34
2016-09-09T08:04:47.616Z,57.66
2016-09-09T08:05:47.624Z,56.14
2016-09-09T08:06:47.629Z,53.67
2016-09-09T08:07:47.641Z,52.34
2016-09-09T08:08:47.647Z,50.56
2016-09-09T08:09:47.654Z,49.22
2016-09-09T08:10:47.669Z,47.61
2016-09-09T08:11:47.656Z,46.77
2016-09-09T08:12:47.663Z,45.81
2016-09-09T08:13:47.671Z,45.25
2016-09-09T08:14:47.674Z,44.57
2016-09-09T08:15:47.689Z,44.4
2016-09-09T08:16:47.691Z,44.3
2016-09-09T08:17:47.693Z,45.28
2016-09-09T08:18:47.703Z,43.81
2016-09-09T08:19:47.708Z,44.01
2016-09-09T08:20:47.716Z,44.49
2016-09-09T08:21:47.725Z,43.91
2016-09-09T08:22:47.728Z,44.01
2016-09-09T08:23:47.735Z,44.79
2016-09-09T08:24:47.741Z,46.13
2016-09-09T08:25:47.747Z,47.17
2016-09-09T08:26:47.754Z,49.27
2016-09-09T08:27:47.762Z,51.35
2016-09-09T08:28:47.768Z,53.08
2016-09-09T08:29:47.775Z,54.28
2016-09-09T08:30:47.790Z,55.81
2016-09-09T08:31:47.791Z,57.04
2016-09-09T08:32:47.797Z,57.2
2016-09-09T08:33:47.803Z,57.88
2016-09-09T08:34:47.811Z,58.72
2016-09-09T08:35:48.073Z,59.21
2016-09-09T08:36:47.819Z,59.31
2016-09-09T08:37:47.824Z,60.08
2016-09-09T08:38:47.833Z,60.44
2016-09-09T08:39:47.837Z,60.82
2016-09-09T08:40:47.841Z,61.3
2016-09-09T08:41:47.855Z,61.08
2016-09-09T08:42:47.856Z,61.86
2016-09-09T08:43:47.856Z,62.44
2016-09-09T08:44:47.864Z,61.66
2016-09-09T08:45:47.867Z,61.5
2016-09-09T08:46:47.888Z,61.02
2016-09-09T08:47:47.886Z,61.02
2016-09-09T08:48:47.894Z,61.02
2016-09-09T08:49:47.898Z,61.11
2016-09-09T08:50:47.897Z,61.02
2016-09-09T08:51:47.903Z,60.72
2016-09-09T08:52:48.144Z,61.4
2016-09-09T08:53:48.220Z,61.53
2016-09-09T08:54:47.909Z,61.43
2016-09-09T08:55:47.915Z,60.72
2016-09-09T08:56:47.919Z,60.85
2016-09-09T08:57:47.925Z,61.33
2016-09-09T08:58:47.929Z,60.85
2016-09-09T08:59:47.933Z,60.27
2016-09-09T09:00:47.946Z,60.17
2016-09-09T09:01:47.943Z,60.08
2016-09-09T09:02:47.947Z,60.08
2016-09-09T09:03:47.958Z,59.89
2016-09-09T09:04:47.962Z,60.57
2016-09-09T09:05:47.966Z,59.31
2016-09-09T09:06:47.965Z,59.31
2016-09-09T09:07:47.970Z,59.31
2016-09-09T09:08:47.977Z,59.4
2016-09-09T09:09:47.979Z,59.4
2016-09-09T09:10:47.981Z,59.31
2016-09-09T09:11:47.986Z,59.31
2016-09-09T09:12:47.992Z,59.31
2016-09-09T09:13:47.996Z,58.82
2016-09-09T09:14:48.002Z,59.05
2016-09-09T09:15:48.003Z,59.33
2016-09-09T09:16:48.010Z,59.63
2016-09-09T09:17:48.012Z,59.14
2016-09-09T09:18:48.017Z,59.23
2016-09-09T09:19:48.024Z,59.05
2016-09-09T09:20:48.025Z,58.37
2016-09-09T09:21:48.032Z,59.21
2016-09-09T09:22:48.034Z,59.23
2016-09-09T09:23:48.039Z,59.01
2016-09-09T09:24:48.053Z,59.63
2016-09-09T09:25:48.051Z,59.72
2016-09-09T09:26:48.051Z,59.14
2016-09-09T09:27:48.058Z,58.56
2016-09-09T09:28:48.062Z,58.85
2016-09-09T09:29:48.066Z,59.05
2016-09-09T09:30:48.074Z,58.75
2016-09-09T09:31:48.075Z,59.72
2016-09-09T09:32:48.080Z,59.82
2016-09-09T09:33:48.087Z,59.59
2016-09-09T09:34:48.088Z,59.98
2016-09-09T09:35:48.094Z,60.75
2016-09-09T09:36:48.105Z,60.47
2016-09-09T09:37:48.105Z,60.08
2016-09-09T09:38:48.123Z,60.27
2016-09-09T09:39:48.128Z,60.47
2016-09-09T09:40:48.117Z,60.27
2016-09-09T09:41:48.128Z,60.47
2016-09-09T09:42:48.135Z,59.89
2016-09-09T09:43:48.134Z,59.33
2016-09-09T09:44:48.131Z,59.63
2016-09-09T09:45:48.136Z,59.63
2016-09-09T09:46:48.142Z,60.08
2016-09-09T09:47:48.146Z,60.57
2016-09-09T09:48:48.153Z,60.17
2016-09-09T09:49:48.154Z,60.85
2016-09-09T09:50:48.171Z,60.85
2016-09-09T09:51:48.163Z,59.98
2016-09-09T09:52:48.171Z,60.27
2016-09-09T09:53:48.173Z,60.57
2016-09-09T09:54:48.176Z,60.57
2016-09-09T09:55:48.181Z,60.47
2016-09-09T09:56:48.185Z,60.47
2016-09-09T09:57:48.189Z,60.17
2016-09-09T09:58:48.195Z,59.98
2016-09-09T09:59:48.210Z,60.08
2016-09-09T10:00:48.204Z,60.27
2016-09-09T10:01:48.207Z,59.98
2016-09-09T10:02:48.210Z,60.17
2016-09-09T10:03:48.217Z,59.79
2016-09-09T10:04:48.221Z,59.79
2016-09-09T10:05:48.230Z,59.31
2016-09-09T10:06:48.234Z,59.63
2016-09-09T10:07:48.234Z,58.95
2016-09-09T10:08:48.248Z,58.37
2016-09-09T10:09:48.241Z,57.81
2016-09-09T10:10:48.253Z,57.33
2016-09-09T10:11:48.250Z,57.43
2016-09-09T10:12:48.260Z,57.14
2016-09-09T10:13:48.259Z,56.87
2016-09-09T10:14:48.263Z,56.97
2016-09-09T10:15:48.273Z,56.2
2016-09-09T10:16:48.278Z,56.1
2016-09-09T10:17:48.287Z,56.59
2016-09-09T10:18:48.280Z,56.87
2016-09-09T10:19:48.303Z,57.07
2016-09-09T10:20:48.298Z,57.23
2016-09-09T10:21:48.297Z,57.91
2016-09-09T10:22:48.300Z,58.88
2016-09-09T10:23:48.305Z,58.47
2016-09-09T10:24:48.320Z,57.79
2016-09-09T10:25:48.323Z,57.62
2016-09-09T10:26:48.321Z,58.49
2016-09-09T10:27:48.325Z,58.37
2016-09-09T10:28:48.326Z,58.47
2016-09-09T10:29:48.331Z,57.88
2016-09-09T10:30:48.332Z,57.53
2016-09-09T10:31:48.345Z,57.04
2016-09-09T10:32:48.356Z,57.53
2016-09-09T10:33:48.351Z,57.43
2016-09-09T10:34:48.352Z,57.33
2016-09-09T10:35:48.359Z,57.53
2016-09-09T10:36:48.363Z,57.04
2016-09-09T10:37:48.365Z,57.43
2016-09-09T10:38:48.375Z,57.14
2016-09-09T10:39:48.389Z,57.04
2016-09-09T10:40:48.387Z,57.04
2016-09-09T10:41:48.388Z,55.98
2016-09-09T10:42:48.389Z,56.46
2016-09-09T10:43:48.394Z,56.26
2016-09-09T10:44:48.396Z,55.98
2016-09-09T10:45:48.402Z,56.36
2016-09-09T10:46:48.406Z,56.07
2016-09-09T10:47:48.414Z,56.26
2016-09-09T10:48:48.416Z,56.1
2016-09-09T10:49:48.427Z,56.39
2016-09-09T10:50:48.425Z,56.77
2016-09-09T10:51:48.444Z,56.68
2016-09-09T10:52:48.438Z,56.39
2016-09-09T10:53:48.438Z,56.49
2016-09-09T10:54:48.454Z,56.49
2016-09-09T10:55:48.453Z,56.29
2016-09-09T10:56:48.452Z,56
2016-09-09T10:57:48.456Z,56.39
2016-09-09T10:58:48.463Z,56.29
2016-09-09T10:59:48.469Z,56.2
2016-09-09T11:00:48.475Z,56.29
2016-09-09T11:01:48.473Z,56.1
2016-09-09T11:02:48.479Z,55.62
2016-09-09T11:03:48.482Z,55.9
2016-09-09T11:04:48.489Z,55.62
2016-09-09T11:05:48.492Z,55.9
2016-09-09T11:06:48.501Z,55.32
2016-09-09T11:07:48.508Z,55.54
2016-09-09T11:08:48.507Z,55.06
2016-09-09T11:09:48.517Z,54.96
2016-09-09T11:10:48.520Z,55.35
2016-09-09T11:11:48.527Z,55.35
2016-09-09T11:12:48.529Z,55.44
2016-09-09T11:13:48.538Z,55.16
2016-09-09T11:14:48.550Z,55.44
2016-09-09T11:15:48.540Z,56
2016-09-09T11:16:48.547Z,56.51
2016-09-09T11:17:48.547Z,55.83
2016-09-09T11:18:48.553Z,56
2016-09-09T11:19:48.562Z,56.1
2016-09-09T11:20:48.565Z,55.81
2016-09-09T11:21:48.570Z,56.1
2016-09-09T11:22:48.573Z,56.2
2016-09-09T11:23:48.577Z,55.93
2016-09-09T11:24:48.831Z,55.81
2016-09-09T11:25:48.585Z,55.16
2016-09-09T11:26:48.592Z,54.38
2016-09-09T11:27:48.608Z,54.86
2016-09-09T11:28:48.604Z,54.21
2016-09-09T11:29:48.605Z,54.11
2016-09-09T11:30:48.613Z,53.83
2016-09-09T11:31:48.615Z,53.63
2016-09-09T11:32:48.619Z,54.02
2016-09-09T11:33:48.627Z,53.92
2016-09-09T11:34:48.629Z,54.6
2016-09-09T11:35:48.636Z,54.5
2016-09-09T11:36:48.642Z,54.99
2016-09-09T11:37:48.644Z,55.06
2016-09-09T11:38:48.663Z,54.9
2016-09-09T11:39:48.656Z,54.41
2016-09-09T11:40:48.658Z,54.8
2016-09-09T11:41:48.666Z,54.5
2016-09-09T11:42:48.673Z,54.86
2016-09-09T11:43:48.674Z,55.47
2016-09-09T11:44:48.679Z,55.06
2016-09-09T11:45:48.691Z,55.38
2016-09-09T11:46:48.692Z,55.26
2016-09-09T11:47:48.695Z,55.44
2016-09-09T11:48:48.698Z,55.28
2016-09-09T11:49:48.705Z,54.41
2016-09-09T11:50:48.709Z,54.6
2016-09-09T11:51:48.712Z,56.45
2016-09-09T11:52:48.720Z,56.05
2016-09-09T11:53:48.727Z,53.83
2016-09-09T11:54:48.730Z,53.83
2016-09-09T11:55:48.739Z,53.83
2016-09-09T11:56:48.745Z,54.02
2016-09-09T11:57:48.744Z,53.92
2016-09-09T11:58:48.748Z,54.11
2016-09-09T11:59:48.759Z,54.02
2016-09-09T12:00:48.757Z,53.83
2016-09-09T12:01:48.760Z,53.83
2016-09-09T12:02:48.765Z,53.83
2016-09-09T12:03:48.774Z,53.83
2016-09-09T12:04:48.778Z,53.85
2016-09-09T12:05:48.789Z,53.85
2016-09-09T12:06:48.795Z,54.14
2016-09-09T12:07:49.105Z,53.08
2016-09-09T12:08:48.795Z,52.4
2016-09-09T12:09:48.802Z,52.98
2016-09-09T12:10:48.811Z,53.85
2016-09-09T12:11:48.810Z,52.88
2016-09-09T12:12:48.814Z,53.75
2016-09-09T12:13:48.822Z,53.27
2016-09-09T12:14:48.823Z,53.85
2016-09-09T12:15:48.830Z,53.95
2016-09-09T12:16:48.831Z,52.78
2016-09-09T12:17:48.844Z,52.72
2016-09-09T12:18:48.842Z,52.5
2016-09-09T12:19:48.860Z,52.4
2016-09-09T12:20:48.856Z,53.08
2016-09-09T12:21:48.860Z,52.52
2016-09-09T12:22:48.863Z,52.98
2016-09-09T12:23:48.873Z,52.13
2016-09-09T12:24:48.873Z,51.75
2016-09-09T12:25:48.878Z,51.55
2016-09-09T12:26:48.885Z,54.36
2016-09-09T12:27:48.890Z,51.77
2016-09-09T12:28:48.894Z,51.18
2016-09-09T12:29:48.898Z,51.67
2016-09-09T12:30:49.070Z,51.09
2016-09-09T12:31:48.910Z,52.52
2016-09-09T12:32:48.917Z,51.09
2016-09-09T12:33:48.922Z,51.35
2016-09-09T12:34:48.924Z,51.45
2016-09-09T12:35:48.928Z,51.16
2016-09-09T12:36:48.933Z,51.16
2016-09-09T12:37:48.937Z,51.53
2016-09-09T12:38:48.943Z,51.72
2016-09-09T12:39:48.950Z,51.62
2016-09-09T12:40:48.953Z,51.26
2016-09-09T12:41:48.962Z,51.14
2016-09-09T12:42:48.964Z,50.48
2016-09-09T12:43:48.969Z,50.09
2016-09-09T12:44:48.975Z,51.14
2016-09-09T12:45:48.979Z,50.94
2016-09-09T12:46:48.984Z,50.29
2016-09-09T12:47:48.991Z,51.43
2016-09-09T12:48:49.001Z,51.26
2016-09-09T12:49:48.998Z,51.06
2016-09-09T12:50:49.001Z,51.06
2016-09-09T12:51:49.010Z,50.77
2016-09-09T12:52:49.012Z,49.92
2016-09-09T12:53:49.017Z,48.66
2016-09-09T12:54:49.022Z,48.95
2016-09-09T12:55:49.027Z,49.24